createdAt,value
2023-04-03T00:01:40.708Z,3.03
2023-04-03T00:04:09.367Z,2.60
2023-04-03T00:06:38.018Z,6.23
2023-04-03T00:09:08.125Z,2.03
2023-04-03T00:11:37.898Z,3.30
2023-04-03T00:14:07.817Z,2.08
2023-04-03T00:16:39.416Z,1.90
2023-04-03T00:19:08.194Z,2.47
2023-04-03T00:21:38.224Z,2.33
2023-04-03T00:24:07.156Z,1.83
2023-04-03T00:26:35.842Z,2.10
2023-04-03T00:29:04.406Z,2.70
2023-04-03T00:31:34.256Z,1.60
2023-04-03T00:34:02.918Z,2.10
2023-04-03T00:36:31.662Z,6.50
2023-04-03T00:39:00.432Z,7.78
2023-04-03T00:41:29.048Z,3.10
2023-04-03T00:43:57.619Z,3.13
2023-04-03T00:46:26.296Z,2.57
2023-04-03T00:48:54.958Z,2.63
2023-04-03T00:51:26.519Z,2.00
2023-04-03T00:54:00.656Z,1.73
2023-04-03T00:56:32.044Z,1.90
2023-04-03T00:59:10.408Z,1.70
2023-04-03T01:01:39.572Z,1.93
2023-04-03T01:04:08.617Z,2.60
2023-04-03T01:06:39.449Z,1.63
2023-04-03T01:09:08.512Z,2.60
2023-04-03T01:11:37.109Z,2.00
2023-04-03T01:14:07.892Z,2.00
2023-04-03T01:16:36.664Z,2.57
2023-04-03T01:19:09.064Z,2.30
2023-04-03T01:21:59.505Z,5.20
2023-04-03T01:24:38.286Z,2.97
2023-04-03T01:27:08.798Z,2.20
2023-04-03T01:29:38.076Z,2.33
2023-04-03T01:32:06.846Z,5.30
2023-04-03T01:34:35.835Z,2.50
2023-04-03T01:37:06.284Z,4.87
2023-04-03T01:39:34.909Z,3.30
2023-04-03T01:42:03.635Z,4.20
2023-04-03T01:44:32.213Z,3.30
2023-04-03T01:47:00.736Z,4.07
2023-04-03T01:49:29.321Z,2.90
2023-04-03T01:51:57.899Z,2.70
2023-04-03T01:54:26.649Z,2.97
2023-04-03T01:56:55.405Z,2.90
2023-04-03T01:59:24.317Z,3.37
2023-04-03T02:01:52.886Z,2.60
2023-04-03T02:04:21.515Z,2.30
2023-04-03T02:06:50.168Z,1.90
2023-04-03T02:09:18.775Z,3.87
2023-04-03T02:11:47.344Z,2.80
2023-04-03T02:14:15.961Z,2.60
2023-04-03T02:16:44.609Z,6.20
2023-04-03T02:19:13.292Z,2.57
2023-04-03T02:21:42.141Z,3.60
2023-04-03T02:24:11.185Z,3.97
2023-04-03T02:26:39.810Z,4.90
2023-04-03T02:29:08.535Z,4.13
2023-04-03T02:31:37.181Z,5.33
2023-04-03T02:34:05.745Z,6.90
2023-04-03T02:36:34.486Z,6.70
2023-04-03T02:39:03.055Z,7.57
2023-04-03T02:41:36.867Z,8.07
2023-04-03T02:44:06.871Z,6.40
2023-04-03T02:46:35.724Z,4.50
2023-04-03T02:49:04.624Z,5.90
2023-04-03T02:51:33.525Z,6.27
2023-04-03T02:54:02.615Z,7.33
2023-04-03T02:56:31.533Z,4.70
2023-04-03T02:59:00.115Z,5.40
2023-04-03T03:01:33.246Z,3.83
2023-04-03T03:04:02.675Z,4.75
2023-04-03T03:06:31.531Z,2.90
2023-04-03T03:09:00.292Z,5.30
2023-04-03T03:11:29.503Z,2.90
2023-04-03T03:13:58.871Z,3.70
2023-04-03T03:16:27.885Z,3.63
2023-04-03T03:18:57.862Z,2.50
2023-04-03T03:21:26.693Z,2.70
2023-04-03T03:23:55.371Z,2.37
2023-04-03T03:26:23.997Z,3.10
2023-04-03T03:28:52.796Z,6.60
2023-04-03T03:31:21.596Z,4.07
2023-04-03T03:33:50.304Z,5.60
2023-04-03T03:36:19.110Z,5.70
2023-04-03T03:38:47.883Z,4.57
2023-04-03T03:41:16.481Z,3.97
2023-04-03T03:43:45.073Z,5.50
2023-04-03T03:46:13.713Z,2.97
2023-04-03T03:48:45.205Z,3.80
2023-04-03T03:51:13.944Z,3.90
2023-04-03T03:53:42.574Z,5.80
2023-04-03T03:56:11.662Z,5.70
2023-04-03T03:58:40.407Z,3.40
2023-04-03T04:01:10.746Z,4.70
2023-04-03T04:03:39.496Z,4.10
2023-04-03T04:06:08.298Z,4.17
2023-04-03T04:08:36.934Z,4.90
2023-04-03T04:11:05.523Z,4.60
2023-04-03T04:13:34.167Z,4.20
2023-04-03T04:16:02.994Z,3.23
2023-04-03T04:18:32.041Z,3.70
2023-04-03T04:21:00.688Z,4.20
2023-04-03T04:23:29.394Z,4.70
2023-04-03T04:25:57.988Z,6.07
2023-04-03T04:28:26.724Z,4.10
2023-04-03T04:30:55.297Z,4.90
2023-04-03T04:33:23.841Z,6.17
2023-04-03T04:35:53.694Z,5.73
2023-04-03T04:38:22.704Z,5.83
2023-04-03T04:40:51.643Z,5.20
2023-04-03T04:43:20.335Z,5.43
2023-04-03T04:45:49.328Z,6.57
2023-04-03T04:48:17.993Z,5.20
2023-04-03T04:50:46.591Z,8.10
2023-04-03T04:53:15.132Z,5.53
2023-04-03T04:55:43.660Z,5.40
2023-04-03T04:58:13.299Z,6.00
2023-04-03T05:00:41.907Z,7.27
2023-04-03T05:03:10.563Z,7.33
2023-04-03T05:05:39.491Z,7.88
2023-04-03T05:08:10.152Z,7.33
2023-04-03T05:10:38.687Z,6.10
2023-04-03T05:13:07.290Z,8.57
2023-04-03T05:15:36.102Z,7.10
2023-04-03T05:18:05.121Z,9.47
2023-04-03T05:20:34.841Z,12.87
2023-04-03T05:23:03.803Z,26.25
2023-04-03T05:25:32.557Z,24.48
2023-04-03T05:28:03.421Z,16.52
2023-04-03T05:30:32.066Z,14.50
2023-04-03T05:33:01.585Z,11.48
2023-04-03T05:35:30.188Z,9.18
2023-04-03T05:37:59.138Z,9.23
2023-04-03T05:40:28.126Z,8.07
2023-04-03T05:42:56.660Z,6.30
2023-04-03T05:45:25.297Z,8.18
2023-04-03T05:47:53.896Z,5.95
2023-04-03T05:50:22.972Z,5.88
2023-04-03T05:52:53.443Z,6.68
2023-04-03T05:55:22.521Z,12.07
2023-04-03T05:57:51.834Z,11.02
2023-04-03T06:00:20.930Z,7.60
2023-04-03T06:02:49.592Z,6.45
2023-04-03T06:05:18.245Z,7.43
2023-04-03T06:07:46.953Z,9.02
2023-04-03T06:10:15.633Z,8.70
2023-04-03T06:12:44.132Z,8.20
2023-04-03T06:15:13.559Z,9.07
2023-04-03T06:17:42.076Z,11.27
2023-04-03T06:20:11.380Z,11.77
2023-04-03T06:22:39.877Z,10.95
2023-04-03T06:25:08.798Z,18.23
2023-04-03T06:27:37.207Z,82.82
2023-04-03T06:30:06.521Z,82.13
2023-04-03T06:32:35.440Z,32.30
2023-04-03T06:35:03.951Z,28.30
2023-04-03T06:37:32.491Z,21.48
2023-04-03T06:40:02.297Z,12.80
2023-04-03T06:42:30.798Z,10.02
2023-04-03T06:44:59.241Z,9.15
2023-04-03T06:47:27.716Z,7.78
2023-04-03T06:49:56.651Z,9.73
2023-04-03T06:52:25.108Z,7.30
2023-04-03T06:54:58.810Z,6.20
2023-04-03T06:57:27.462Z,7.47
2023-04-03T06:59:56.122Z,6.75
2023-04-03T07:02:24.708Z,9.35
2023-04-03T07:04:53.257Z,6.82
2023-04-03T07:07:21.661Z,7.20
2023-04-03T07:09:51.310Z,5.88
2023-04-03T07:12:19.746Z,5.40
2023-04-03T07:14:48.099Z,6.13
2023-04-03T07:17:16.858Z,7.88
2023-04-03T07:19:45.319Z,6.13
2023-04-03T07:22:13.927Z,6.80
2023-04-03T07:24:42.493Z,6.63
2023-04-03T07:27:10.972Z,5.38
2023-04-03T07:29:39.523Z,6.88
2023-04-03T07:32:08.748Z,9.43
2023-04-03T07:34:37.620Z,4.70
2023-04-03T07:37:06.667Z,7.50
2023-04-03T07:39:35.612Z,9.20
2023-04-03T07:42:04.224Z,7.32
2023-04-03T07:44:32.828Z,7.72
2023-04-03T07:47:01.735Z,4.78
2023-04-03T07:49:30.424Z,5.45
2023-04-03T07:51:58.962Z,6.32
2023-04-03T07:54:27.680Z,7.15
2023-04-03T07:56:56.118Z,6.28
2023-04-03T07:59:24.521Z,6.32
2023-04-03T08:01:53.413Z,5.88
2023-04-03T08:04:21.889Z,5.60
2023-04-03T08:06:50.406Z,6.60
2023-04-03T08:09:19.020Z,13.52
2023-04-03T08:11:47.806Z,8.52
2023-04-03T08:14:20.272Z,5.70
2023-04-03T08:16:50.292Z,9.00
2023-04-03T08:19:26.065Z,7.20
2023-04-03T08:21:57.038Z,5.85
2023-04-03T08:24:25.475Z,6.15
2023-04-03T08:26:53.926Z,6.05
2023-04-03T08:29:23.043Z,6.40
2023-04-03T08:31:52.230Z,5.68
2023-04-03T08:34:21.172Z,5.47
2023-04-03T08:36:50.062Z,7.15
2023-04-03T08:39:18.599Z,4.13
2023-04-03T08:41:49.463Z,4.05
2023-04-03T08:44:41.435Z,5.75
2023-04-03T08:47:38.009Z,7.22
2023-04-03T08:50:18.742Z,4.32
2023-04-03T08:52:54.134Z,6.45
2023-04-03T08:55:40.124Z,4.30
2023-04-03T08:58:21.029Z,5.18
2023-04-03T09:01:09.889Z,3.78
2023-04-03T09:03:42.092Z,4.07
2023-04-03T09:06:42.891Z,8.63
2023-04-03T09:09:40.435Z,4.10
2023-04-03T09:12:28.944Z,4.30
2023-04-03T09:15:35.524Z,6.38
2023-04-03T09:18:17.545Z,4.30
2023-04-03T09:20:49.117Z,6.57
2023-04-03T09:23:42.387Z,3.53
2023-04-03T09:26:32.867Z,6.28
2023-04-03T09:29:09.400Z,6.68
2023-04-03T09:31:44.273Z,4.53
2023-04-03T09:34:29.170Z,5.35
2023-04-03T09:37:00.543Z,4.55
2023-04-03T09:39:31.126Z,4.75
2023-04-03T09:42:27.156Z,5.28
2023-04-03T09:45:06.922Z,4.95
2023-04-03T09:47:38.381Z,4.00
2023-04-03T09:50:20.150Z,4.35
2023-04-03T09:52:53.988Z,3.20
2023-04-03T09:55:31.541Z,5.28
2023-04-03T09:58:03.510Z,5.80
2023-04-03T10:00:41.083Z,6.53
2023-04-03T10:03:32.220Z,4.95
2023-04-03T10:06:02.072Z,4.35
2023-04-03T10:08:32.340Z,6.55
2023-04-03T10:11:19.289Z,4.10
2023-04-03T10:14:07.349Z,6.15
2023-04-03T10:17:06.268Z,3.15
2023-04-03T10:19:40.907Z,5.25
2023-04-03T10:22:38.411Z,3.85
2023-04-03T10:25:17.188Z,5.63
2023-04-03T10:28:14.661Z,5.05
2023-04-03T10:31:08.893Z,4.38
2023-04-03T10:33:50.259Z,4.68
2023-04-03T10:36:40.636Z,3.78
2023-04-03T10:39:33.763Z,4.70
2023-04-03T10:42:22.911Z,4.88
2023-04-03T10:45:03.649Z,5.03
2023-04-03T10:47:57.906Z,5.20
2023-04-03T10:50:29.427Z,5.68
2023-04-03T10:53:30.392Z,3.80
2023-04-03T10:56:04.354Z,6.20
2023-04-03T10:58:42.602Z,6.40
2023-04-03T11:01:42.708Z,5.18
2023-04-03T11:04:12.669Z,4.35
2023-04-03T11:06:49.531Z,5.18
2023-04-03T11:09:29.599Z,3.67
2023-04-03T11:12:13.910Z,6.18
2023-04-03T11:14:43.068Z,2.92
2023-04-03T11:17:23.841Z,3.20
2023-04-03T11:20:04.022Z,4.13
2023-04-03T11:22:39.316Z,3.10
2023-04-03T11:25:24.072Z,7.65
2023-04-03T11:28:03.542Z,4.63
2023-04-03T11:30:35.276Z,3.50
2023-04-03T11:33:24.030Z,3.78
2023-04-03T11:35:56.104Z,3.75
2023-04-03T11:38:38.611Z,4.00
2023-04-03T11:41:09.398Z,3.50
2023-04-03T11:43:44.696Z,3.53
2023-04-03T11:46:13.287Z,4.82
2023-04-03T11:48:47.365Z,5.30
2023-04-03T11:51:18.071Z,6.95
2023-04-03T11:53:47.447Z,3.47
2023-04-03T11:56:27.988Z,4.63
2023-04-03T11:59:17.378Z,3.95
2023-04-03T12:01:50.666Z,3.85
2023-04-03T12:04:21.495Z,3.50
2023-04-03T12:06:52.514Z,4.03
2023-04-03T12:09:36.119Z,4.40
2023-04-03T12:12:28.128Z,7.50
2023-04-03T12:14:56.840Z,3.83
2023-04-03T12:17:29.820Z,3.40
2023-04-03T12:19:58.435Z,3.28
2023-04-03T12:22:27.107Z,4.03
2023-04-03T12:24:55.887Z,5.82
2023-04-03T12:27:29.283Z,3.30
2023-04-03T12:30:01.837Z,5.85
2023-04-03T12:32:43.099Z,3.90
2023-04-03T12:35:53.881Z,4.50
2023-04-03T12:38:31.810Z,6.05
2023-04-03T12:41:23.172Z,5.57
2023-04-03T12:44:28.576Z,5.67
2023-04-03T12:46:57.118Z,5.40
2023-04-03T12:49:28.563Z,6.00
2023-04-03T12:51:57.610Z,5.97
2023-04-03T12:54:39.438Z,5.07
2023-04-03T12:57:25.742Z,5.05
2023-04-03T12:59:54.368Z,7.10
2023-04-03T13:02:26.319Z,5.22
2023-04-03T13:04:59.599Z,5.45
2023-04-03T13:07:39.825Z,7.75
2023-04-03T13:10:11.372Z,7.10
2023-04-03T13:12:53.689Z,5.78
2023-04-03T13:15:31.915Z,12.68
2023-04-03T13:18:00.477Z,6.90
2023-04-03T13:20:39.453Z,6.95
2023-04-03T13:23:15.902Z,8.40
2023-04-03T13:25:47.268Z,6.00
2023-04-03T13:28:20.897Z,4.78
2023-04-03T13:31:16.964Z,6.07
2023-04-03T13:34:01.147Z,5.35
2023-04-03T13:36:35.956Z,3.65
2023-04-03T13:39:15.300Z,3.75
2023-04-03T13:41:47.214Z,5.18
2023-04-03T13:44:24.637Z,4.20
2023-04-03T13:46:56.289Z,5.72
2023-04-03T13:49:35.375Z,6.07
2023-04-03T13:52:24.096Z,3.83
2023-04-03T13:55:18.700Z,5.47
2023-04-03T13:57:59.349Z,6.70
2023-04-03T14:00:49.377Z,5.85
2023-04-03T14:03:32.941Z,5.10
2023-04-03T14:06:03.165Z,7.07
2023-04-03T14:08:42.234Z,5.57
2023-04-03T14:11:36.644Z,8.82
2023-04-03T14:14:13.620Z,7.78
2023-04-03T14:16:44.671Z,8.32
2023-04-03T14:19:37.175Z,7.93
2023-04-03T14:22:16.950Z,6.07
2023-04-03T14:24:46.296Z,6.50
2023-04-03T14:27:26.587Z,6.15
2023-04-03T14:29:56.944Z,7.45
2023-04-03T14:32:26.687Z,7.35
2023-04-03T14:34:55.392Z,10.95
2023-04-03T14:37:26.816Z,10.52
2023-04-03T14:39:55.696Z,7.25
2023-04-03T14:42:30.335Z,7.38
2023-04-03T14:44:59.329Z,10.82
2023-04-03T14:47:32.372Z,8.10
2023-04-03T14:50:03.341Z,8.73
2023-04-03T14:52:35.546Z,8.27
2023-04-03T14:55:06.502Z,7.18
2023-04-03T14:57:35.562Z,7.55
2023-04-03T15:00:05.879Z,7.00
2023-04-03T15:02:39.919Z,7.03
2023-04-03T15:05:11.098Z,8.88
2023-04-03T15:07:50.132Z,7.82
2023-04-03T15:10:28.761Z,7.63
2023-04-03T15:12:57.839Z,7.75
2023-04-03T15:15:30.422Z,8.70
2023-04-03T15:17:59.872Z,9.32
2023-04-03T15:20:29.625Z,10.38
2023-04-03T15:22:58.763Z,8.35
2023-04-03T15:25:27.980Z,6.72
2023-04-03T15:27:57.702Z,8.00
2023-04-03T15:30:26.386Z,8.10
2023-04-03T15:32:55.037Z,7.28
2023-04-03T15:35:23.608Z,9.48
2023-04-03T15:37:53.052Z,6.00
2023-04-03T15:40:21.656Z,5.10
2023-04-03T15:42:50.974Z,5.75
2023-04-03T15:45:20.868Z,6.82
2023-04-03T15:47:49.396Z,6.13
2023-04-03T15:50:18.280Z,6.20
2023-04-03T15:52:46.656Z,5.40
2023-04-03T15:55:15.091Z,4.50
2023-04-03T15:57:43.465Z,4.97
2023-04-03T16:00:12.533Z,3.90
2023-04-03T16:02:41.651Z,4.90
2023-04-03T16:05:12.603Z,5.60
2023-04-03T16:07:42.217Z,7.30
2023-04-03T16:10:14.608Z,5.23
2023-04-03T16:12:43.521Z,3.90
2023-04-03T16:15:13.800Z,3.23
2023-04-03T16:17:42.993Z,3.33
2023-04-03T16:20:13.786Z,3.80
2023-04-03T16:22:43.041Z,2.83
2023-04-03T16:25:12.564Z,3.50
2023-04-03T16:27:41.704Z,4.32
2023-04-03T16:30:10.660Z,5.70
2023-04-03T16:32:40.863Z,3.60
2023-04-03T16:35:09.645Z,3.30
2023-04-03T16:37:38.415Z,3.17
2023-04-03T16:40:08.526Z,2.50
2023-04-03T16:42:38.033Z,2.70
2023-04-03T16:45:08.550Z,2.73
2023-04-03T16:47:37.254Z,4.53
2023-04-03T16:50:06.164Z,3.20
2023-04-03T16:52:34.668Z,2.27
2023-04-03T16:55:03.097Z,2.50
2023-04-03T16:57:31.830Z,4.10
2023-04-03T17:00:00.266Z,6.03
2023-04-03T17:02:28.785Z,4.10
2023-04-03T17:04:57.483Z,4.87
2023-04-03T17:07:27.217Z,2.80
2023-04-03T17:09:55.688Z,3.20
2023-04-03T17:12:24.149Z,3.07
2023-04-03T17:14:52.672Z,2.40
2023-04-03T17:17:25.813Z,3.35
2023-04-03T17:19:55.865Z,3.03
2023-04-03T17:22:24.431Z,2.70
2023-04-03T17:24:52.835Z,4.50
2023-04-03T17:27:21.381Z,2.70
2023-04-03T17:29:49.778Z,3.27
2023-04-03T17:32:18.595Z,2.70
2023-04-03T17:34:49.709Z,3.30
2023-04-03T17:37:18.114Z,4.60
2023-04-03T17:39:47.821Z,3.83
2023-04-03T17:42:16.860Z,4.72
2023-04-03T17:44:45.289Z,3.07
2023-04-03T17:47:13.768Z,4.20
2023-04-03T17:49:42.250Z,3.55
2023-04-03T17:52:10.698Z,2.90
2023-04-03T17:54:39.246Z,2.70
2023-04-03T17:57:09.619Z,2.93
2023-04-03T17:59:38.612Z,2.90
2023-04-03T18:02:07.047Z,2.70
2023-04-03T18:04:35.445Z,2.60
2023-04-03T18:07:04.795Z,3.57
2023-04-03T18:09:35.081Z,2.50
2023-04-03T18:12:06.441Z,4.20
2023-04-03T18:14:36.898Z,2.33
2023-04-03T18:17:05.461Z,2.57
2023-04-03T18:19:34.598Z,2.10
2023-04-03T18:22:07.296Z,2.53
2023-04-03T18:24:37.071Z,2.30
2023-04-03T18:27:19.574Z,2.57
2023-04-03T18:29:51.450Z,1.87
2023-04-03T18:32:22.133Z,2.47
2023-04-03T18:34:50.708Z,2.53
2023-04-03T18:37:19.828Z,3.67
2023-04-03T18:39:48.256Z,3.27
2023-04-03T18:42:20.925Z,2.00
2023-04-03T18:44:53.692Z,2.63
2023-04-03T18:47:22.178Z,2.07
2023-04-03T18:49:50.748Z,2.47
2023-04-03T18:52:19.183Z,2.30
2023-04-03T18:54:47.675Z,2.13
2023-04-03T18:57:16.058Z,2.50
2023-04-03T18:59:44.513Z,3.63
2023-04-03T19:02:14.224Z,2.20
2023-04-03T19:04:42.728Z,2.30
2023-04-03T19:07:11.861Z,2.20
2023-04-03T19:09:41.330Z,1.83
2023-04-03T19:12:09.947Z,2.30
2023-04-03T19:14:38.424Z,4.80
2023-04-03T19:17:08.933Z,2.40
2023-04-03T19:19:37.359Z,2.53
2023-04-03T19:22:07.768Z,4.10
2023-04-03T19:24:36.409Z,2.60
2023-04-03T19:27:05.149Z,3.13
2023-04-03T19:29:33.834Z,2.00
2023-04-03T19:32:02.399Z,6.67
2023-04-03T19:34:30.903Z,3.23
2023-04-03T19:36:59.618Z,2.70
2023-04-03T19:39:29.886Z,4.00
2023-04-03T19:41:58.349Z,2.92
2023-04-03T19:44:26.830Z,3.23
2023-04-03T19:46:55.611Z,3.60
2023-04-03T19:49:24.182Z,5.30
2023-04-03T19:51:54.296Z,3.17
2023-04-03T19:54:23.847Z,2.63
2023-04-03T19:56:52.435Z,3.37
2023-04-03T19:59:21.124Z,2.20
2023-04-03T20:01:49.802Z,2.30
2023-04-03T20:04:18.379Z,3.00
2023-04-03T20:06:47.508Z,1.83
2023-04-03T20:09:16.891Z,3.10
2023-04-03T20:11:48.156Z,2.20
2023-04-03T20:14:18.263Z,1.70
2023-04-03T20:16:48.131Z,3.00
2023-04-03T20:19:17.642Z,2.03
2023-04-03T20:21:46.093Z,1.70
2023-04-03T20:24:16.452Z,1.80
2023-04-03T20:26:47.977Z,3.03
2023-04-03T20:29:17.545Z,1.70
2023-04-03T20:31:47.496Z,1.90
2023-04-03T20:34:16.877Z,1.80
2023-04-03T20:36:49.729Z,3.03
2023-04-03T20:39:20.100Z,2.00
2023-04-03T20:41:48.556Z,2.67
2023-04-03T20:44:19.263Z,2.27
2023-04-03T20:46:52.952Z,1.87
2023-04-03T20:49:22.809Z,3.17
2023-04-03T20:51:52.016Z,2.50
2023-04-03T20:54:20.806Z,2.20
2023-04-03T20:56:50.670Z,2.37
2023-04-03T20:59:19.522Z,1.90
2023-04-03T21:01:48.590Z,1.90
2023-04-03T21:04:43.086Z,2.43
2023-04-03T21:07:48.745Z,2.20
2023-04-03T21:10:55.034Z,2.83
2023-04-03T21:14:01.956Z,2.43
2023-04-03T21:16:30.153Z,1.60
2023-04-03T21:19:11.323Z,2.57
2023-04-03T21:21:40.709Z,2.13
2023-04-03T21:24:13.042Z,1.93
2023-04-03T21:26:42.532Z,1.60
2023-04-03T21:29:12.119Z,1.60
2023-04-03T21:32:00.707Z,1.98
2023-04-03T21:34:31.164Z,1.60
2023-04-03T21:37:08.025Z,1.90
2023-04-03T21:39:37.012Z,2.20
2023-04-03T21:42:05.557Z,1.73
2023-04-03T21:44:34.143Z,2.43
2023-04-03T21:47:02.619Z,3.50
2023-04-03T21:49:31.007Z,2.20
2023-04-03T21:51:59.416Z,1.98
2023-04-03T21:54:28.557Z,1.60
2023-04-03T21:56:56.951Z,1.50
2023-04-03T21:59:25.755Z,1.60
2023-04-03T22:01:54.379Z,1.90
2023-04-03T22:04:23.257Z,1.90
2023-04-03T22:06:51.763Z,1.80
2023-04-03T22:09:20.260Z,1.77
2023-04-03T22:11:49.810Z,3.53
2023-04-03T22:14:18.929Z,1.90
2023-04-03T22:16:47.462Z,1.80
2023-04-03T22:19:16.045Z,1.80
2023-04-03T22:21:44.538Z,1.60
2023-04-03T22:24:13.224Z,1.60
2023-04-03T22:26:45.106Z,2.23
2023-04-03T22:29:14.244Z,1.63
2023-04-03T22:31:43.217Z,1.50
2023-04-03T22:34:11.977Z,1.60
2023-04-03T22:36:43.712Z,1.80
2023-04-03T22:39:13.165Z,1.73
2023-04-03T22:41:41.542Z,1.90
2023-04-03T22:44:09.970Z,1.43
2023-04-03T22:46:38.507Z,1.40
2023-04-03T22:49:07.146Z,1.47
2023-04-03T22:51:35.521Z,1.70
2023-04-03T22:54:04.119Z,1.60
2023-04-03T22:56:32.507Z,1.92
2023-04-03T22:59:00.934Z,1.50
2023-04-03T23:01:30.158Z,1.50
2023-04-03T23:03:58.597Z,1.70
2023-04-03T23:06:27.538Z,1.40
2023-04-03T23:08:56.000Z,1.77
2023-04-03T23:11:24.378Z,1.40
2023-04-03T23:13:52.806Z,1.70
2023-04-03T23:16:21.230Z,1.50
2023-04-03T23:18:50.778Z,1.80
2023-04-03T23:21:19.146Z,1.63
2023-04-03T23:23:47.864Z,2.07
2023-04-03T23:26:16.355Z,1.77
2023-04-03T23:28:44.827Z,2.23
2023-04-03T23:31:13.342Z,1.90
2023-04-03T23:33:44.640Z,1.87
2023-04-03T23:36:14.252Z,1.70
2023-04-03T23:38:43.145Z,1.60
2023-04-03T23:41:11.808Z,1.60
2023-04-03T23:43:42.326Z,8.80
2023-04-03T23:46:10.788Z,2.03
2023-04-03T23:48:39.175Z,3.17
2023-04-03T23:51:07.924Z,2.33
2023-04-03T23:53:36.360Z,2.70
2023-04-03T23:56:10.410Z,2.70
2023-04-03T23:58:39.047Z,6.20
